Time;durP1;ratioP1;P1;durP2;ratioP2;P2;SDS_P1;SDS_P2;PMS_P1;PMS_P2;Temp;Humidity;BMP_temperature;BMP_pressure;BME280_temperature;BME280_humidity;BME280_pressure;Samples;Min_cycle;Max_cycle;Signal;HPM_P1;HPM_P2
2023/04/14 00:01:40;;;;;;;7.00;4.30;;;;;;;15.94;43.26;93707.47;5125824;28;20177;-47
2023/04/14 00:04:06;;;;;;;5.23;4.23;;;;;;;15.93;43.25;93729.88;5125770;28;20227;-47
2023/04/14 00:06:33;;;;;;;6.87;4.00;;;;;;;15.94;43.17;93722.94;5125827;28;20191;-47
2023/04/14 00:09:00;;;;;;;5.57;4.30;;;;;;;15.93;43.43;93719.56;5124235;28;20231;-47
2023/04/14 00:11:27;;;;;;;6.50;3.87;;;;;;;15.94;43.20;93720.34;5112117;28;20177;-48
2023/04/14 00:13:55;;;;;;;8.47;4.67;;;;;;;15.93;43.40;93711.81;5111757;28;20235;-47
2023/04/14 00:16:22;;;;;;;6.13;4.10;;;;;;;15.91;43.28;93705.25;5112392;28;20200;-47
2023/04/14 00:18:50;;;;;;;3.87;3.13;;;;;;;15.93;43.33;93701.50;5111961;28;20276;-46
2023/04/14 00:21:17;;;;;;;5.67;3.20;;;;;;;15.92;43.45;93707.63;5112347;28;20185;-47
2023/04/14 00:23:44;;;;;;;4.27;3.87;;;;;;;15.94;43.49;93702.31;5111908;28;20189;-47
2023/04/14 00:26:10;;;;;;;10.37;4.90;;;;;;;15.92;43.40;93710.22;5112134;28;20343;-47
2023/04/14 00:28:37;;;;;;;4.03;3.50;;;;;;;15.92;43.43;93712.78;5111986;28;20189;-47
2023/04/14 00:31:05;;;;;;;6.50;4.30;;;;;;;15.93;43.57;93698.09;5112282;28;20564;-47
2023/04/14 00:33:32;;;;;;;3.80;3.47;;;;;;;15.93;43.62;93713.59;5111954;28;20280;-47
2023/04/14 00:36:00;;;;;;;4.77;3.97;;;;;;;15.74;43.49;93677.25;5112108;28;20254;-48
2023/04/14 00:38:27;;;;;;;4.73;3.63;;;;;;;15.92;43.82;93710.22;5111440;28;20803;-48
2023/04/14 00:40:53;;;;;;;5.23;4.00;;;;;;;15.93;43.82;93705.84;5111874;28;20192;-47
2023/04/14 00:43:20;;;;;;;7.07;3.80;;;;;;;15.77;43.76;93669.13;5115156;28;20193;-47
2023/04/14 00:45:49;;;;;;;6.57;3.77;;;;;;;15.75;43.63;93660.78;5112433;28;20189;-46
2023/04/14 00:48:16;;;;;;;4.43;3.60;;;;;;;15.84;43.70;93681.22;5111609;28;20181;-46
2023/04/14 00:50:44;;;;;;;5.73;4.07;;;;;;;15.93;43.96;93691.19;5111460;28;20249;-47
2023/04/14 00:53:13;;;;;;;4.47;3.77;;;;;;;15.92;43.89;93702.47;5111838;28;20241;-47
2023/04/14 00:55:40;;;;;;;4.87;3.77;;;;;;;15.92;43.93;93699.09;5111208;28;20620;-47
2023/04/14 00:58:07;;;;;;;4.77;4.17;;;;;;;15.91;44.06;93694.94;5111942;28;20200;-47
2023/04/14 01:00:35;;;;;;;4.50;3.97;;;;;;;15.91;43.98;93689.78;5110711;28;20204;-47
2023/04/14 01:03:02;;;;;;;4.30;3.90;;;;;;;15.91;43.92;93689.78;5111376;28;20200;-48
2023/04/14 01:05:28;;;;;;;4.70;3.40;;;;;;;15.77;44.17;93681.22;5111110;28;20257;-47
2023/04/14 01:07:55;;;;;;;5.83;4.30;;;;;;;15.90;44.02;93691.56;5111212;28;20216;-47
2023/04/14 01:10:30;;;;;;;4.13;3.73;;;;;;;15.90;43.92;93688.22;5110957;28;20196;-46
2023/04/14 01:13:08;;;;;;;4.23;3.63;;;;;;;15.89;44.14;93691.75;5111400;28;20185;-47
2023/04/14 01:15:40;;;;;;;5.20;4.00;;;;;;;15.87;44.24;93688.59;5110785;28;20189;-47
2023/04/14 01:18:15;;;;;;;6.73;3.97;;;;;;;15.86;44.18;93687.00;5111099;28;20181;-47
2023/04/14 01:20:43;;;;;;;4.97;3.90;;;;;;;15.85;44.22;93690.59;5110446;28;20284;-48
2023/04/14 01:23:15;;;;;;;5.77;3.73;;;;;;;15.76;44.20;93677.06;5110409;28;20204;-48
2023/04/14 01:26:15;;;;;;;3.90;3.50;;;;;;;15.84;44.16;93683.81;5110994;28;20255;-46
2023/04/14 01:29:23;;;;;;;4.10;3.60;;;;;;;15.83;44.29;93679.66;5110738;28;20529;-48
2023/04/14 01:31:57;;;;;;;5.40;4.00;;;;;;;15.80;44.21;93679.06;5008259;28;20620;-46
2023/04/14 01:34:31;;;;;;;4.23;3.83;;;;;;;15.77;44.50;93669.13;5007852;28;20663;-46
2023/04/14 01:37:05;;;;;;;4.27;3.87;;;;;;;15.76;44.46;93682.22;5008172;28;20193;-47
2023/04/14 01:39:36;;;;;;;4.60;3.87;;;;;;;15.79;44.50;93684.41;5007803;28;20228;-46
2023/04/14 01:42:06;;;;;;;5.53;3.80;;;;;;;15.77;44.26;93674.28;5008157;28;20200;-47
2023/04/14 01:44:35;;;;;;;4.90;3.67;;;;;;;15.67;44.34;93667.91;5007893;28;20586;-46
2023/04/14 01:47:07;;;;;;;6.43;4.10;;;;;;;15.77;44.57;93671.72;5007984;28;20247;-47
2023/04/14 01:49:36;;;;;;;4.63;3.70;;;;;;;15.76;44.64;93677.88;5007895;28;20196;-48
2023/04/14 01:52:10;;;;;;;7.10;4.20;;;;;;;15.74;44.74;93666.16;5007997;28;20204;-48
2023/04/14 01:54:40;;;;;;;3.80;3.40;;;;;;;15.75;44.77;93685.78;5007692;28;20769;-47
2023/04/14 01:57:08;;;;;;;6.23;3.83;;;;;;;15.75;44.87;93675.47;5007954;28;20192;-46
2023/04/14 01:59:37;;;;;;;4.40;4.00;;;;;;;15.69;44.93;93659.00;5007415;28;20232;-48
2023/04/14 02:02:08;;;;;;;5.67;3.80;;;;;;;15.72;44.81;93676.66;5007836;28;20705;-48
2023/04/14 02:04:37;;;;;;;4.33;3.63;;;;;;;15.72;44.78;93681.03;5007133;28;20203;-47
2023/04/14 02:07:06;;;;;;;4.07;3.20;;;;;;;15.72;44.85;93686.19;5013372;28;20192;-46
2023/04/14 02:09:34;;;;;;;6.73;4.00;;;;;;;15.71;44.91;93675.06;5109700;28;20236;-48
2023/04/14 02:12:02;;;;;;;4.47;3.80;;;;;;;15.65;44.91;93669.88;5110038;28;20599;-47
2023/04/14 02:14:31;;;;;;;4.73;3.90;;;;;;;15.70;45.06;93677.84;5109915;28;20193;-47
2023/04/14 02:17:01;;;;;;;3.60;3.30;;;;;;;15.58;45.06;93654.38;5109843;28;20673;-47
2023/04/14 02:19:30;;;;;;;4.33;3.80;;;;;;;15.66;45.13;93680.00;5109649;28;20310;-48
2023/04/14 02:21:58;;;;;;;5.57;3.53;;;;;;;15.69;44.95;93681.41;5110217;28;20227;-47
2023/04/14 02:24:25;;;;;;;10.40;3.73;;;;;;;15.68;45.22;93688.34;5109708;28;20189;-47
2023/04/14 02:26:58;;;;;;;4.13;3.73;;;;;;;15.68;44.92;93683.19;5109850;28;20189;-47
2023/04/14 02:29:27;;;;;;;4.53;3.53;;;;;;;15.63;45.11;93680.38;5109471;28;20253;-47
2023/04/14 02:32:00;;;;;;;4.37;3.60;;;;;;;15.67;45.18;93667.91;5109848;28;20827;-47
2023/04/14 02:34:33;;;;;;;3.87;3.53;;;;;;;15.64;45.13;93670.84;5109546;28;20220;-48
2023/04/14 02:37:07;;;;;;;4.57;3.70;;;;;;;15.63;45.41;93680.38;5109828;28;20211;-48
2023/04/14 02:39:40;;;;;;;5.33;3.83;;;;;;;15.64;45.32;93676.84;5109545;28;20322;-48
2023/04/14 02:42:13;;;;;;;3.83;3.53;;;;;;;15.63;45.22;93684.69;5109848;28;20189;-47
2023/04/14 02:44:45;;;;;;;6.87;3.60;;;;;;;15.63;45.45;93674.41;5109283;28;20197;-47
2023/04/14 02:47:15;;;;;;;4.03;3.63;;;;;;;15.62;45.32;93685.69;5110050;28;20249;-48
2023/04/14 02:49:47;;;;;;;3.40;3.10;;;;;;;15.62;45.46;93680.53;5109555;28;20280;-47
2023/04/14 02:52:17;;;;;;;4.03;3.63;;;;;;;15.61;45.69;93663.50;5109847;28;20645;-47
2023/04/14 02:54:46;;;;;;;5.77;4.07;;;;;;;15.61;45.42;93656.56;5109213;28;20733;-48
2023/04/14 02:57:14;;;;;;;5.80;4.43;;;;;;;15.57;45.61;93653.56;5109657;28;20195;-47
2023/04/14 02:59:42;;;;;;;5.43;4.17;;;;;;;15.59;45.52;93648.25;5108995;28;20220;-48
2023/04/14 03:02:11;;;;;;;3.67;3.30;;;;;;;15.58;45.61;93659.53;5109817;28;20189;-47
2023/04/14 03:04:39;;;;;;;4.60;3.40;;;;;;;15.57;45.68;93661.31;5109223;28;20189;-47
2023/04/14 03:07:09;;;;;;;7.37;4.13;;;;;;;15.59;45.66;93657.72;5109726;28;20216;-46
2023/04/14 03:09:36;;;;;;;7.70;3.97;;;;;;;15.57;45.47;93657.94;5108997;28;20232;-47
2023/04/14 03:12:05;;;;;;;5.83;3.63;;;;;;;15.54;45.56;93646.25;5109400;28;20286;-46
2023/04/14 03:14:34;;;;;;;6.53;4.13;;;;;;;15.13;45.86;93588.84;5109068;28;20274;-47
2023/04/14 03:17:01;;;;;;;4.77;3.80;;;;;;;15.53;45.60;93661.88;5109294;28;20192;-47
2023/04/14 03:19:29;;;;;;;4.57;3.80;;;;;;;15.54;45.88;93659.13;5108774;28;20231;-48
2023/04/14 03:21:58;;;;;;;5.07;3.57;;;;;;;15.48;45.69;93654.72;5109175;28;20208;-46
2023/04/14 03:24:30;;;;;;;4.13;3.73;;;;;;;15.53;45.97;93667.81;5108774;28;20285;-48
2023/04/14 03:27:02;;;;;;;4.93;3.70;;;;;;;15.53;45.84;93656.72;5109200;28;20673;-47
2023/04/14 03:29:34;;;;;;;5.17;3.70;;;;;;;15.53;46.16;93652.38;5108827;28;20188;-47
2023/04/14 03:32:05;;;;;;;4.30;3.90;;;;;;;15.11;46.02;93575.34;5108961;28;20211;-47
2023/04/14 03:34:34;;;;;;;3.97;3.47;;;;;;;15.49;46.00;93616.88;5109017;28;20383;-46
2023/04/14 03:37:04;;;;;;;5.27;3.33;;;;;;;14.69;45.85;93493.03;5109175;28;20192;-48
2023/04/14 03:39:33;;;;;;;4.13;3.73;;;;;;;15.48;46.08;93612.72;5108955;28;20255;-48
2023/04/14 03:42:02;;;;;;;4.73;3.70;;;;;;;15.47;46.20;93605.97;5109020;28;20686;-47
2023/04/14 03:44:34;;;;;;;4.40;4.00;;;;;;;15.43;46.04;93569.50;5109236;28;20571;-47
2023/04/14 03:47:02;;;;;;;4.00;3.60;;;;;;;15.45;46.07;93579.59;5113350;28;20197;-47
2023/04/14 03:49:32;;;;;;;4.20;3.63;;;;;;;15.46;46.23;93588.94;5112490;28;20284;-46
2023/04/14 03:52:02;;;;;;;5.73;3.60;;;;;;;15.34;46.30;93569.88;5113098;28;20224;-47
2023/04/14 03:54:32;;;;;;;4.63;3.90;;;;;;;15.44;46.32;93583.97;5112368;28;20193;-49
2023/04/14 03:57:03;;;;;;;4.70;3.50;;;;;;;15.46;46.25;93584.59;5112832;28;20195;-47
2023/04/14 03:59:32;;;;;;;5.20;3.77;;;;;;;15.46;46.23;93594.88;5112036;28;20289;-46
2023/04/14 04:02:01;;;;;;;4.10;3.70;;;;;;;15.46;46.37;93597.47;5112771;28;20253;-47
2023/04/14 04:04:29;;;;;;;4.73;4.30;;;;;;;15.38;46.42;93583.97;5112289;28;20181;-46
2023/04/14 04:06:57;;;;;;;4.80;3.13;;;;;;;15.46;46.30;93597.47;5112707;28;20200;-47
2023/04/14 04:09:24;;;;;;;4.70;3.77;;;;;;;15.45;46.48;93590.69;5112072;28;20225;-46
2023/04/14 04:11:53;;;;;;;4.77;3.77;;;;;;;15.46;46.56;93592.31;5112612;28;20196;-46
2023/04/14 04:14:22;;;;;;;4.77;3.90;;;;;;;15.46;46.58;93592.31;5112552;28;20196;-48
2023/04/14 04:16:51;;;;;;;4.40;3.60;;;;;;;15.39;46.54;93576.03;5111981;28;20250;-47
2023/04/14 04:19:20;;;;;;;4.00;3.60;;;;;;;15.40;46.43;93574.25;5112352;28;20228;-46
2023/04/14 04:21:49;;;;;;;3.63;3.27;;;;;;;15.47;46.69;93588.75;5112354;28;20204;-48
2023/04/14 04:24:19;;;;;;;5.97;3.87;;;;;;;15.48;46.44;93587.75;5112370;28;20605;-47
2023/04/14 04:26:47;;;;;;;7.03;3.70;;;;;;;15.38;46.59;93589.91;5112176;28;20193;-48
2023/04/14 04:29:15;;;;;;;7.03;3.60;;;;;;;15.33;46.65;93581.97;5112329;28;20197;-47
2023/04/14 04:31:42;;;;;;;6.10;3.87;;;;;;;15.52;46.56;93613.91;5111598;28;20197;-47
2023/04/14 04:34:11;;;;;;;5.17;4.17;;;;;;;15.52;46.65;93619.06;5112285;28;20200;-48
2023/04/14 04:36:38;;;;;;;5.43;3.50;;;;;;;15.35;46.52;93598.00;5112276;28;20224;-48
2023/04/14 04:39:05;;;;;;;5.33;3.40;;;;;;;15.56;46.63;93630.59;5112147;28;20250;-47
2023/04/14 04:41:33;;;;;;;4.10;3.70;;;;;;;15.59;46.63;93637.13;5111868;28;20185;-50
2023/04/14 04:44:00;;;;;;;5.43;3.60;;;;;;;15.54;46.58;93628.22;5111995;28;20197;-48
2023/04/14 04:46:46;;;;;;;4.30;3.87;;;;;;;15.63;46.66;93622.84;5111609;28;20189;-50
2023/04/14 04:49:13;;;;;;;5.90;3.80;;;;;;;15.63;46.75;93623.69;5112089;28;20208;-46
2023/04/14 04:51:39;;;;;;;4.93;4.00;;;;;;;15.68;46.86;93608.44;5112064;28;20185;-48
2023/04/14 04:54:06;;;;;;;4.90;3.43;;;;;;;15.71;46.66;93594.34;5112328;28;20262;-48
2023/04/14 04:56:34;;;;;;;4.53;3.60;;;;;;;15.76;46.73;93602.31;5111800;28;20196;-48
2023/04/14 04:59:01;;;;;;;4.97;3.93;;;;;;;15.46;46.60;93552.88;5111685;28;20605;-49
2023/04/14 05:01:28;;;;;;;4.27;3.87;;;;;;;15.84;46.43;93593.59;5111835;28;20220;-48
2023/04/14 05:03:56;;;;;;;4.53;4.00;;;;;;;15.89;46.41;93589.44;5112386;28;20193;-47
2023/04/14 05:06:23;;;;;;;5.70;4.57;;;;;;;15.94;46.46;93588.84;5112576;28;20189;-48
2023/04/14 05:08:51;;;;;;;7.30;3.60;;;;;;;15.99;46.21;93589.06;5113594;27;20231;-47
2023/04/14 05:11:18;;;;;;;5.13;3.63;;;;;;;16.05;46.37;93590.81;5112485;28;20197;-49
2023/04/14 05:13:45;;;;;;;4.83;3.70;;;;;;;16.10;46.33;93603.91;5111515;28;20197;-47
2023/04/14 05:16:13;;;;;;;5.87;4.17;;;;;;;16.15;46.19;93604.13;5111335;28;20201;-48
2023/04/14 05:18:41;;;;;;;3.90;3.43;;;;;;;16.21;46.27;93600.75;5111258;28;20677;-47
2023/04/14 05:21:11;;;;;;;6.93;4.47;;;;;;;16.28;46.18;93598.97;5111203;28;20229;-47
2023/04/14 05:23:40;;;;;;;4.73;3.50;;;;;;;16.33;46.00;93577.72;5110760;28;20193;-47
2023/04/14 05:26:08;;;;;;;3.97;3.03;;;;;;;16.41;46.23;93584.47;5110973;28;20635;-48
2023/04/14 05:28:35;;;;;;;4.17;3.73;;;;;;;16.47;45.96;93597.34;5110770;28;20193;-48
2023/04/14 05:31:02;;;;;;;3.80;3.27;;;;;;;16.51;45.88;93559.03;5110758;28;20196;-48
2023/04/14 05:33:29;;;;;;;3.87;3.20;;;;;;;16.56;45.83;93559.22;5110737;28;20196;-48
2023/04/14 05:35:56;;;;;;;6.13;3.23;;;;;;;16.62;45.77;93565.34;5111262;28;20288;-46
2023/04/14 05:38:24;;;;;;;3.37;3.10;;;;;;;16.68;45.86;93567.16;5110556;28;20188;-47
2023/04/14 05:40:50;;;;;;;4.67;4.17;;;;;;;16.75;45.73;93549.88;5110797;28;20229;-49
2023/04/14 05:43:17;;;;;;;4.13;3.73;;;;;;;16.84;45.62;93543.50;5110586;28;20192;-47
2023/04/14 05:45:45;;;;;;;6.50;3.40;;;;;;;16.94;45.45;93524.97;5110535;28;20204;-47
2023/04/14 05:48:13;;;;;;;4.40;3.67;;;;;;;17.05;45.29;93526.91;5110552;28;20257;-49
2023/04/14 05:50:39;;;;;;;4.87;3.83;;;;;;;17.15;45.22;93536.81;5110401;28;20276;-47
2023/04/14 05:53:06;;;;;;;4.70;3.50;;;;;;;17.25;45.29;93530.19;5110276;28;20628;-48
2023/04/14 05:55:35;;;;;;;4.67;3.87;;;;;;;17.21;45.03;93518.69;5110083;28;20200;-47
2023/04/14 05:58:01;;;;;;;7.90;3.40;;;;;;;17.45;45.14;93531.88;5110629;28;20228;-48
2023/04/14 06:00:29;;;;;;;4.83;3.37;;;;;;;17.53;44.79;93537.59;5110066;28;20228;-48
2023/04/14 06:02:55;;;;;;;5.70;3.83;;;;;;;17.64;44.86;93527.59;5110257;28;20197;-49
2023/04/14 06:05:23;;;;;;;3.80;3.10;;;;;;;17.72;44.63;93528.13;5110028;28;20189;-48
2023/04/14 06:07:50;;;;;;;4.10;3.73;;;;;;;17.80;44.79;93506.41;5109684;28;20254;-46
2023/04/14 06:10:17;;;;;;;5.10;4.20;;;;;;;17.86;44.75;93522.88;5109733;28;20601;-47
2023/04/14 06:12:45;;;;;;;6.47;3.73;;;;;;;17.90;44.45;93513.69;5109661;28;20193;-48
2023/04/14 06:15:12;;;;;;;4.90;3.63;;;;;;;17.95;44.59;93506.09;5109035;28;20197;-49
2023/04/14 06:17:39;;;;;;;4.03;3.63;;;;;;;17.98;44.55;93495.31;5109911;28;20615;-49
2023/04/14 06:20:07;;;;;;;4.77;3.17;;;;;;;18.02;44.45;93484.34;5109630;28;20762;-47
2023/04/14 06:22:34;;;;;;;5.20;3.60;;;;;;;18.08;44.56;93500.00;5109764;28;20197;-48
2023/04/14 06:25:01;;;;;;;4.37;3.33;;;;;;;18.07;44.52;93481.09;5109467;28;20204;-48
2023/04/14 06:27:28;;;;;;;3.70;3.10;;;;;;;17.74;44.44;93414.16;5110157;28;20272;-48
2023/04/14 06:29:58;;;;;;;6.77;3.67;;;;;;;18.24;44.29;93471.00;5109733;28;20193;-48
2023/04/14 06:32:25;;;;;;;3.80;3.50;;;;;;;18.35;44.03;93456.53;5109917;28;20199;-47
2023/04/14 06:34:52;;;;;;;5.40;3.47;;;;;;;18.33;43.90;93445.63;5109634;28;20189;-48
2023/04/14 06:37:19;;;;;;;6.67;3.70;;;;;;;18.57;44.01;93431.81;5109264;28;20196;-48
2023/04/14 06:39:45;;;;;;;3.93;3.53;;;;;;;18.75;43.79;93462.91;5109449;28;20200;-50
2023/04/14 06:42:12;;;;;;;4.80;3.10;;;;;;;18.96;43.48;93447.91;5109456;28;20531;-47
2023/04/14 06:44:39;;;;;;;4.17;3.40;;;;;;;19.12;43.32;93436.91;5109620;28;20258;-48
2023/04/14 06:47:08;;;;;;;4.60;3.17;;;;;;;19.26;43.29;93440.13;5108666;28;20280;-47
2023/04/14 06:49:35;;;;;;;3.67;3.30;;;;;;;19.38;43.10;93398.63;5109498;28;20780;-48
2023/04/14 06:52:02;;;;;;;3.63;3.17;;;;;;;19.50;43.01;93405.41;5109226;28;20197;-48
2023/04/14 06:54:31;;;;;;;4.93;3.60;;;;;;;19.61;42.92;93411.69;5109420;28;20189;-48
2023/04/14 06:56:58;;;;;;;3.57;3.23;;;;;;;19.75;42.91;93414.84;5109182;28;20575;-49
2023/04/14 06:59:28;;;;;;;3.67;3.27;;;;;;;19.91;42.70;93403.00;5109790;28;20257;-49
2023/04/14 07:01:55;;;;;;;5.90;3.80;;;;;;;20.02;42.56;93371.03;5109150;28;20351;-47
2023/04/14 07:04:23;;;;;;;4.30;3.40;;;;;;;20.43;42.27;93397.84;5109328;28;20196;-48
2023/04/14 07:06:50;;;;;;;7.30;3.70;;;;;;;20.82;42.03;93393.66;5109137;28;20193;-48
2023/04/14 07:09:18;;;;;;;4.33;3.47;;;;;;;21.32;42.01;93400.78;5109346;28;20268;-47
2023/04/14 07:11:45;;;;;;;5.47;3.17;;;;;;;21.57;41.98;93350.19;5109143;28;20201;-48
2023/04/14 07:14:12;;;;;;;4.40;2.90;;;;;;;22.66;41.80;93401.59;5109453;28;20217;-47
2023/04/14 07:16:38;;;;;;;3.58;3.10;;;;;;;23.39;41.43;93404.69;5109312;28;20196;-49
2023/04/14 07:19:06;;;;;;;4.20;3.33;;;;;;;24.02;40.72;93396.06;5109224;28;20200;-47
2023/04/14 07:21:34;;;;;;;3.38;3.08;;;;;;;24.60;39.96;93393.47;5113406;28;20701;-48
2023/04/14 07:24:01;;;;;;;3.72;3.05;;;;;;;25.23;39.81;93385.56;5113022;28;20286;-46
2023/04/14 07:26:27;;;;;;;3.88;3.03;;;;;;;25.86;39.48;93390.53;5113456;28;20216;-47
2023/04/14 07:28:55;;;;;;;4.97;3.00;;;;;;;26.43;38.81;93400.63;5113085;28;20204;-47
2023/04/14 07:31:22;;;;;;;5.50;3.10;;;;;;;27.00;38.43;93390.69;5113275;28;20189;-47
2023/04/14 07:33:49;;;;;;;3.22;2.92;;;;;;;27.40;37.99;93378.38;5113045;28;20189;-47
2023/04/14 07:36:16;;;;;;;4.30;2.67;;;;;;;27.88;37.63;93399.56;5112993;28;20189;-47
2023/04/14 07:38:44;;;;;;;3.35;2.65;;;;;;;28.26;36.70;93395.25;5112769;28;20589;-48
2023/04/14 07:41:11;;;;;;;4.10;2.75;;;;;;;28.58;36.71;93389.38;5113098;28;20292;-50
2023/04/14 07:43:38;;;;;;;4.97;2.72;;;;;;;28.86;36.36;93374.56;5112935;28;20267;-48
2023/04/14 07:46:07;;;;;;;4.70;2.85;;;;;;;29.13;36.08;93370.53;5112721;28;20185;-47
2023/04/14 07:48:35;;;;;;;6.97;3.10;;;;;;;29.39;35.82;93394.66;5112863;28;20200;-48
2023/04/14 07:51:03;;;;;;;3.50;2.75;;;;;;;29.74;35.64;93373.03;5112588;28;20200;-49
2023/04/14 07:53:30;;;;;;;2.88;2.65;;;;;;;30.20;34.99;93351.16;5112665;28;20572;-48
2023/04/14 07:55:59;;;;;;;7.28;3.20;;;;;;;30.70;35.03;93376.84;5112613;28;20193;-48
2023/04/14 07:58:26;;;;;;;3.95;2.85;;;;;;;31.18;34.33;93348.13;5112650;28;20189;-50
2023/04/14 08:00:53;;;;;;;3.20;2.60;;;;;;;31.35;34.21;93325.59;5112192;28;20312;-48
2023/04/14 08:03:20;;;;;;;3.63;2.75;;;;;;;31.98;33.90;93369.50;5112548;28;20224;-48
2023/04/14 08:05:47;;;;;;;4.15;2.92;;;;;;;32.31;33.53;93350.69;5111988;28;20216;-48
2023/04/14 08:08:14;;;;;;;2.95;2.75;;;;;;;32.57;33.50;93351.56;5112485;28;20193;-48
2023/04/14 08:10:41;;;;;;;3.22;2.80;;;;;;;32.77;32.59;93363.41;5112342;28;20197;-48
2023/04/14 08:13:09;;;;;;;3.10;2.70;;;;;;;32.96;32.76;93357.88;5112469;28;20200;-48
2023/04/14 08:15:37;;;;;;;4.75;2.80;;;;;;;33.12;32.64;93347.63;5111992;28;20529;-48
2023/04/14 08:18:05;;;;;;;5.22;2.53;;;;;;;33.36;32.31;93339.19;5112270;28;20200;-48
2023/04/14 08:20:31;;;;;;;3.65;2.58;;;;;;;33.53;31.77;93346.38;5111893;28;20307;-48
2023/04/14 08:22:58;;;;;;;3.85;2.53;;;;;;;33.64;31.56;93340.44;5112151;28;20690;-49
2023/04/14 08:25:25;;;;;;;4.72;2.80;;;;;;;33.74;31.34;93365.06;5112073;28;20277;-48
2023/04/14 08:27:52;;;;;;;2.83;2.33;;;;;;;33.80;31.44;93358.47;5112205;28;20599;-48
2023/04/14 08:30:20;;;;;;;3.30;2.63;;;;;;;33.86;31.29;93349.28;5111668;28;20189;-49
2023/04/14 08:32:47;;;;;;;3.97;2.50;;;;;;;33.93;30.80;93346.91;5111721;28;20193;-49
2023/04/14 08:35:14;;;;;;;3.88;2.65;;;;;;;33.99;31.02;93366.13;5111779;28;20263;-48
2023/04/14 08:37:41;;;;;;;7.72;3.22;;;;;;;34.05;30.58;93383.41;5111764;28;20679;-49
2023/04/14 08:40:10;;;;;;;6.70;2.95;;;;;;;34.15;30.60;93364.47;5112010;28;20189;-49
2023/04/14 08:42:37;;;;;;;7.72;2.67;;;;;;;34.27;30.27;93375.22;5111473;28;20278;-49
2023/04/14 08:45:05;;;;;;;5.07;2.55;;;;;;;34.35;30.29;93366.44;5111790;28;20677;-47
2023/04/14 08:47:35;;;;;;;4.00;2.70;;;;;;;34.47;30.10;93387.03;5111429;28;20200;-48
2023/04/14 08:50:06;;;;;;;4.93;2.70;;;;;;;34.61;30.10;93395.56;5111817;28;20576;-48
2023/04/14 08:52:35;;;;;;;3.42;3.00;;;;;;;34.75;29.74;93386.59;5111396;28;20650;-47
2023/04/14 08:55:03;;;;;;;3.85;3.10;;;;;;;34.88;29.76;93386.34;5111563;28;20193;-48
2023/04/14 08:57:31;;;;;;;2.92;2.35;;;;;;;34.98;29.49;93405.72;5111466;28;20189;-50
2023/04/14 08:59:58;;;;;;;9.05;2.78;;;;;;;35.04;29.29;93429.13;5111685;28;20193;-48
2023/04/14 09:02:26;;;;;;;8.32;3.25;;;;;;;35.13;29.30;93397.16;5110972;28;20229;-47
2023/04/14 09:04:57;;;;;;;6.10;2.88;;;;;;;35.20;28.86;93418.69;5111920;28;20627;-47
2023/04/14 09:07:24;;;;;;;6.40;2.95;;;;;;;35.19;28.82;93428.56;5112159;28;20204;-48
2023/04/14 09:09:52;;;;;;;4.80;2.95;;;;;;;35.13;28.96;93383.88;5112276;28;20708;-48
2023/04/14 09:12:21;;;;;;;14.30;2.85;;;;;;;35.06;28.83;93391.56;5111271;28;20200;-49
2023/04/14 09:14:50;;;;;;;7.25;2.95;;;;;;;34.95;28.62;93399.13;5111312;28;20189;-49
2023/04/14 09:17:17;;;;;;;7.03;2.63;;;;;;;34.82;28.77;93384.97;5110834;28;20189;-49
2023/04/14 09:19:45;;;;;;;6.40;2.85;;;;;;;34.67;28.88;93372.25;5111245;28;20275;-50
2023/04/14 09:22:14;;;;;;;11.52;3.45;;;;;;;34.48;28.89;93351.41;5111340;28;20220;-49
2023/04/14 09:24:41;;;;;;;10.55;3.47;;;;;;;34.41;28.55;93361.72;5111210;28;20543;-48
2023/04/14 09:27:08;;;;;;;9.25;3.05;;;;;;;34.29;28.61;93370.38;5111167;28;20680;-48
2023/04/14 09:29:35;;;;;;;10.73;3.28;;;;;;;34.17;28.51;93372.91;5110896;28;20193;-47
2023/04/14 09:32:02;;;;;;;9.45;3.70;;;;;;;33.98;28.42;93375.16;5110707;28;20958;-48
2023/04/14 09:34:29;;;;;;;8.23;2.38;;;;;;;33.89;28.43;93386.53;5110805;28;20254;-49
2023/04/14 09:37:01;;;;;;;9.50;2.67;;;;;;;33.68;28.32;93351.97;5111004;28;20265;-48
2023/04/14 09:39:29;;;;;;;6.63;2.78;;;;;;;33.66;28.20;93385.19;5110337;28;20221;-49
2023/04/14 09:41:56;;;;;;;15.82;3.22;;;;;;;33.60;27.84;93355.41;5109658;28;20224;-48
2023/04/14 09:44:23;;;;;;;9.98;2.85;;;;;;;33.61;27.90;93366.78;5109692;28;20197;-47
2023/04/14 09:46:57;;;;;;;8.15;2.80;;;;;;;33.61;27.90;93361.47;5110329;28;20188;-48
2023/04/14 09:49:24;;;;;;;10.98;3.08;;;;;;;33.61;27.73;93378.16;5110103;28;20203;-50
2023/04/14 09:51:52;;;;;;;7.53;3.05;;;;;;;33.60;28.16;93357.28;5110454;28;20577;-48
2023/04/14 09:54:24;;;;;;;9.70;3.28;;;;;;;33.55;27.90;93379.44;5110186;28;20673;-51
2023/04/14 09:56:52;;;;;;;11.57;3.45;;;;;;;33.51;27.76;93373.19;5110473;28;20268;-49
2023/04/14 09:59:31;;;;;;;7.13;2.67;;;;;;;33.51;27.56;93385.66;5110493;28;20198;-50
2023/04/14 10:02:00;;;;;;;11.10;2.90;;;;;;;33.49;27.65;93393.16;5110442;28;20221;-48
2023/04/14 10:04:27;;;;;;;8.60;2.90;;;;;;;33.44;27.54;93400.16;5110262;28;20189;-48
2023/04/14 10:06:57;;;;;;;4.45;2.55;;;;;;;33.39;27.32;93420.72;5110321;28;20285;-48
2023/04/14 10:09:26;;;;;;;7.53;2.83;;;;;;;33.28;27.70;93422.13;5109893;28;20229;-47
2023/04/14 10:12:12;;;;;;;11.52;3.47;;;;;;;33.10;27.41;93424.75;5110295;28;20720;-49
2023/04/14 10:14:39;;;;;;;13.93;3.17;;;;;;;33.16;27.61;93465.91;5110143;28;20193;-48
2023/04/14 10:17:06;;;;;;;8.43;3.13;;;;;;;33.09;27.67;93446.25;5109968;28;20200;-48
2023/04/14 10:19:33;;;;;;;12.05;3.15;;;;;;;33.18;27.20;93457.66;5109836;28;20196;-49
2023/04/14 10:22:01;;;;;;;11.15;2.85;;;;;;;33.17;27.29;93493.19;5109729;28;20270;-48
2023/04/14 10:24:28;;;;;;;7.68;3.33;;;;;;;33.13;27.44;93493.03;5109762;28;20225;-49
2023/04/14 10:26:55;;;;;;;12.25;3.45;;;;;;;33.08;27.66;93487.09;5110016;28;20647;-49
2023/04/14 10:29:23;;;;;;;10.15;3.55;;;;;;;33.04;27.41;93549.72;5109595;28;20197;-49
2023/04/14 10:31:54;;;;;;;16.67;3.30;;;;;;;33.00;27.40;93570.75;5109755;28;20582;-48
2023/04/14 10:34:23;;;;;;;7.05;3.15;;;;;;;32.93;27.31;93560.59;5109376;28;20220;-48
2023/04/14 10:36:50;;;;;;;10.70;3.47;;;;;;;32.80;27.44;93565.94;5109661;28;20276;-47
2023/04/14 10:39:23;;;;;;;12.23;3.42;;;;;;;32.23;27.56;93542.69;5109612;28;20192;-49
2023/04/14 10:41:51;;;;;;;18.42;3.58;;;;;;;32.11;27.87;93603.28;5109511;28;20339;-49
2023/04/14 10:44:27;;;;;;;12.50;3.22;;;;;;;31.85;28.57;93651.44;5109457;28;20189;-48
2023/04/14 10:46:55;;;;;;;11.80;2.80;;;;;;;31.46;28.68;93673.06;5109373;28;20196;-48
2023/04/14 10:49:29;;;;;;;7.43;3.28;;;;;;;31.18;29.52;93691.53;5109347;28;20661;-48
2023/04/14 10:51:58;;;;;;;10.30;3.03;;;;;;;30.91;29.71;93705.41;5109485;28;20193;-48
2023/04/14 10:54:25;;;;;;;7.78;3.17;;;;;;;30.53;30.05;93730.25;5109293;28;20193;-48
2023/04/14 10:57:11;;;;;;;7.70;3.17;;;;;;;30.03;30.33;93754.34;5109516;28;20292;-48
2023/04/14 10:59:43;;;;;;;8.93;2.63;;;;;;;29.52;30.65;93760.16;5108475;28;20645;-48
2023/04/14 11:02:23;;;;;;;8.60;2.25;;;;;;;28.79;31.18;93739.91;5109330;28;20227;-48
2023/04/14 11:05:04;;;;;;;3.45;2.00;;;;;;;28.53;31.57;93797.19;5109516;28;20272;-47
2023/04/14 11:07:37;;;;;;;3.22;2.25;;;;;;;28.02;31.99;93778.97;5109544;28;20193;-47
2023/04/14 11:10:28;;;;;;;3.72;2.17;;;;;;;27.65;32.51;93800.34;5108954;28;20251;-47
2023/04/14 11:12:57;;;;;;;4.25;2.38;;;;;;;27.14;32.56;93805.63;5109617;28;20227;-48
2023/04/14 11:15:43;;;;;;;5.72;1.92;;;;;;;26.89;33.23;93838.63;5109391;28;20220;-48
2023/04/14 11:18:14;;;;;;;3.10;1.92;;;;;;;26.50;33.36;93849.53;5109026;28;20189;-48
2023/04/14 11:20:42;;;;;;;5.00;1.73;;;;;;;26.16;33.58;93827.34;5109175;28;20242;-47
2023/04/14 11:23:09;;;;;;;5.18;1.92;;;;;;;25.94;33.34;93823.06;5108877;28;20320;-47
2023/04/14 11:25:37;;;;;;;4.53;1.83;;;;;;;25.72;33.75;93822.38;5109587;28;20236;-48
2023/04/14 11:28:04;;;;;;;3.35;1.80;;;;;;;25.54;34.11;93823.56;5109133;28;20184;-49
2023/04/14 11:30:32;;;;;;;2.35;1.77;;;;;;;25.40;34.12;93830.28;5109377;28;20280;-48
2023/04/14 11:32:59;;;;;;;4.13;1.92;;;;;;;25.21;34.18;93848.19;5108867;28;20555;-48
2023/04/14 11:35:27;;;;;;;4.80;1.50;;;;;;;25.03;34.26;93857.94;5108955;28;20378;-48
2023/04/14 11:37:55;;;;;;;4.30;2.03;;;;;;;24.89;34.61;93866.44;5108705;28;20189;-48
2023/04/14 11:40:22;;;;;;;6.35;1.92;;;;;;;24.78;34.83;93868.97;5108832;28;20280;-49